Pagina principală
METAR-TAF:

METAR-TAF

Aeroporturi :

Bari, Italia

Latitudine: 41-08N, longitudine: 016-47E, elevație: 34 m

Observații meteo curente

Raportul a fost făcut în urmă cu 42 de minute, la 08:50 UTC
Vânt 8 kt de la Nord/Nord-vest, variabil între Vest/Nord-vest și Nord-est
Temperatură 36°C
Umiditate 27%
Presiune 1013 hPa
Vizibilitate de 10 km sau mai mult

METAR: LIBD 170850Z AUTO 33008KT 290V040 9999 NCD 36/14 Q1013

Ora: 11:32 (09:32 UTC)

Prognoză

Raportul a fost făcut în urmă cu 4 ore și 32 de minute, la 05:00 UTC
Prognoză valabilă de la 17 ora 06 UTC la 18 ora 06 UTC
Vânt 5 kt de la Vest
Vizibilitate de 10 km sau mai mult
nu există nori sub 1.500 m și nici cumulonimbus
Devenind
de la 17 ora 07 UTC la 17 ora 09 UTC
Vânt 12 kt de la Nord
Devenind
de la 17 ora 16 UTC la 17 ora 18 UTC
Vânt 5 kt din direcții variabile

TAF: LIBD 170500Z 1706/1806 26005KT CAVOK BECMG 1707/1709 35012KT BECMG 1716/1718 VRB05KT

Observații și prognoze meteo pentru peste 4.000 de aeroporturi (rapoarte METAR și TAF).

Stațiile disponibile sunt reprezentate pe hartă prin puncte galbene și roșii.

Țineți indicatorul mouse-ului pe punctul dorit pentru a vedea denumirea stației.

Apoi, faceți clic pentru a vedea observațiile și prognozele meteorologice.

Pentru a schimba harta: Pentru mărire, faceți clic pe butoanele verzi cu cruce neagră; pentru micșorare, pe butonul verde cu o liniuță; pentru hărți învecinate, pe săgețile verzi.


METAR-TAF: